sensor_id;sensor_type;location;lat;lon;timestamp;P1;durP1;ratioP1;P2;durP2;ratioP2
80854;SDS011;70272;49.222;-122.892;2023-07-31T00:01:57;2.28;;;1.60;;
80854;SDS011;70272;49.222;-122.892;2023-07-31T00:04:23;2.97;;;1.70;;
80854;SDS011;70272;49.222;-122.892;2023-07-31T00:06:50;2.83;;;1.73;;
80854;SDS011;70272;49.222;-122.892;2023-07-31T00:09:16;3.08;;;2.00;;
80854;SDS011;70272;49.222;-122.892;2023-07-31T00:11:42;2.40;;;1.70;;
80854;SDS011;70272;49.222;-122.892;2023-07-31T00:14:08;3.15;;;2.00;;
80854;SDS011;70272;49.222;-122.892;2023-07-31T00:16:35;2.88;;;1.90;;
80854;SDS011;70272;49.222;-122.892;2023-07-31T00:19:01;2.95;;;1.60;;
80854;SDS011;70272;49.222;-122.892;2023-07-31T00:21:27;2.45;;;1.70;;
80854;SDS011;70272;49.222;-122.892;2023-07-31T00:23:53;2.78;;;2.00;;
80854;SDS011;70272;49.222;-122.892;2023-07-31T00:26:20;3.10;;;1.67;;
80854;SDS011;70272;49.222;-122.892;2023-07-31T00:28:46;3.10;;;1.83;;
80854;SDS011;70272;49.222;-122.892;2023-07-31T00:31:12;5.68;;;1.83;;
80854;SDS011;70272;49.222;-122.892;2023-07-31T00:33:38;2.72;;;1.52;;
80854;SDS011;70272;49.222;-122.892;2023-07-31T00:36:04;3.03;;;1.83;;
80854;SDS011;70272;49.222;-122.892;2023-07-31T00:38:31;2.00;;;1.60;;
80854;SDS011;70272;49.222;-122.892;2023-07-31T00:40:57;2.63;;;1.85;;
80854;SDS011;70272;49.222;-122.892;2023-07-31T00:43:24;2.58;;;1.70;;
80854;SDS011;70272;49.222;-122.892;2023-07-31T00:45:50;2.15;;;1.52;;
80854;SDS011;70272;49.222;-122.892;2023-07-31T00:48:17;2.88;;;1.67;;
80854;SDS011;70272;49.222;-122.892;2023-07-31T00:50:43;2.67;;;1.70;;
80854;SDS011;70272;49.222;-122.892;2023-07-31T00:53:09;3.30;;;1.80;;
80854;SDS011;70272;49.222;-122.892;2023-07-31T00:55:35;2.72;;;1.83;;
80854;SDS011;70272;49.222;-122.892;2023-07-31T00:58:02;3.20;;;1.90;;
80854;SDS011;70272;49.222;-122.892;2023-07-31T01:00:28;2.28;;;1.70;;
80854;SDS011;70272;49.222;-122.892;2023-07-31T01:02:54;2.65;;;1.70;;
80854;SDS011;70272;49.222;-122.892;2023-07-31T01:05:23;2.65;;;1.83;;
80854;SDS011;70272;49.222;-122.892;2023-07-31T01:07:52;3.22;;;1.90;;
80854;SDS011;70272;49.222;-122.892;2023-07-31T01:10:28;3.83;;;2.08;;
80854;SDS011;70272;49.222;-122.892;2023-07-31T01:12:59;2.78;;;1.90;;
80854;SDS011;70272;49.222;-122.892;2023-07-31T01:15:26;2.72;;;2.00;;
80854;SDS011;70272;49.222;-122.892;2023-07-31T01:17:52;2.72;;;1.77;;
80854;SDS011;70272;49.222;-122.892;2023-07-31T01:20:20;2.38;;;1.75;;
80854;SDS011;70272;49.222;-122.892;2023-07-31T01:25:47;3.35;;;1.92;;
80854;SDS011;70272;49.222;-122.892;2023-07-31T01:31:14;2.67;;;1.75;;
80854;SDS011;70272;49.222;-122.892;2023-07-31T01:33:43;2.55;;;1.80;;
80854;SDS011;70272;49.222;-122.892;2023-07-31T01:36:10;2.88;;;2.30;;
80854;SDS011;70272;49.222;-122.892;2023-07-31T01:38:36;3.53;;;1.90;;
80854;SDS011;70272;49.222;-122.892;2023-07-31T01:41:02;3.28;;;2.17;;
80854;SDS011;70272;49.222;-122.892;2023-07-31T01:43:28;3.53;;;2.00;;
80854;SDS011;70272;49.222;-122.892;2023-07-31T01:45:55;2.50;;;1.70;;
80854;SDS011;70272;49.222;-122.892;2023-07-31T01:48:21;2.67;;;1.83;;
80854;SDS011;70272;49.222;-122.892;2023-07-31T01:50:47;5.13;;;2.05;;
80854;SDS011;70272;49.222;-122.892;2023-07-31T01:53:13;3.03;;;2.13;;
80854;SDS011;70272;49.222;-122.892;2023-07-31T01:55:39;4.68;;;1.98;;
80854;SDS011;70272;49.222;-122.892;2023-07-31T01:58:06;2.75;;;1.80;;
80854;SDS011;70272;49.222;-122.892;2023-07-31T02:00:32;3.20;;;1.90;;
80854;SDS011;70272;49.222;-122.892;2023-07-31T02:02:59;2.92;;;2.10;;
80854;SDS011;70272;49.222;-122.892;2023-07-31T02:05:25;3.10;;;2.10;;
80854;SDS011;70272;49.222;-122.892;2023-07-31T02:07:51;3.67;;;2.20;;
80854;SDS011;70272;49.222;-122.892;2023-07-31T02:10:18;2.85;;;1.80;;
80854;SDS011;70272;49.222;-122.892;2023-07-31T02:12:44;3.80;;;1.90;;
80854;SDS011;70272;49.222;-122.892;2023-07-31T02:15:10;3.35;;;1.98;;
80854;SDS011;70272;49.222;-122.892;2023-07-31T02:17:36;2.55;;;1.80;;
80854;SDS011;70272;49.222;-122.892;2023-07-31T02:20:03;2.72;;;1.80;;
80854;SDS011;70272;49.222;-122.892;2023-07-31T02:22:29;4.35;;;2.55;;
80854;SDS011;70272;49.222;-122.892;2023-07-31T02:24:56;2.83;;;1.75;;
80854;SDS011;70272;49.222;-122.892;2023-07-31T02:27:22;3.88;;;2.10;;
80854;SDS011;70272;49.222;-122.892;2023-07-31T02:29:52;3.13;;;1.90;;
80854;SDS011;70272;49.222;-122.892;2023-07-31T02:32:19;2.35;;;1.60;;
80854;SDS011;70272;49.222;-122.892;2023-07-31T02:34:45;2.90;;;1.80;;
80854;SDS011;70272;49.222;-122.892;2023-07-31T02:37:11;3.08;;;1.70;;
80854;SDS011;70272;49.222;-122.892;2023-07-31T02:39:38;3.67;;;1.88;;
80854;SDS011;70272;49.222;-122.892;2023-07-31T02:42:04;3.05;;;2.00;;
80854;SDS011;70272;49.222;-122.892;2023-07-31T02:44:30;2.72;;;2.10;;
80854;SDS011;70272;49.222;-122.892;2023-07-31T02:46:56;3.25;;;1.80;;
80854;SDS011;70272;49.222;-122.892;2023-07-31T02:49:23;3.17;;;1.90;;
80854;SDS011;70272;49.222;-122.892;2023-07-31T02:51:49;2.75;;;1.90;;
80854;SDS011;70272;49.222;-122.892;2023-07-31T02:54:15;3.45;;;2.00;;
80854;SDS011;70272;49.222;-122.892;2023-07-31T02:56:41;2.80;;;1.80;;
80854;SDS011;70272;49.222;-122.892;2023-07-31T02:59:08;3.03;;;1.80;;
80854;SDS011;70272;49.222;-122.892;2023-07-31T03:01:34;3.78;;;2.28;;
80854;SDS011;70272;49.222;-122.892;2023-07-31T03:04:00;3.17;;;1.90;;
80854;SDS011;70272;49.222;-122.892;2023-07-31T03:06:27;2.75;;;1.90;;
80854;SDS011;70272;49.222;-122.892;2023-07-31T03:08:53;4.07;;;2.15;;
80854;SDS011;70272;49.222;-122.892;2023-07-31T03:11:19;3.38;;;1.92;;
80854;SDS011;70272;49.222;-122.892;2023-07-31T03:13:46;3.10;;;1.80;;
80854;SDS011;70272;49.222;-122.892;2023-07-31T03:16:12;4.00;;;2.10;;
80854;SDS011;70272;49.222;-122.892;2023-07-31T03:18:38;3.20;;;1.83;;
80854;SDS011;70272;49.222;-122.892;2023-07-31T03:21:04;2.53;;;1.80;;
80854;SDS011;70272;49.222;-122.892;2023-07-31T03:23:31;2.75;;;1.90;;
80854;SDS011;70272;49.222;-122.892;2023-07-31T03:25:57;2.47;;;1.73;;
80854;SDS011;70272;49.222;-122.892;2023-07-31T03:28:29;3.58;;;2.22;;
80854;SDS011;70272;49.222;-122.892;2023-07-31T03:30:55;3.13;;;1.85;;
80854;SDS011;70272;49.222;-122.892;2023-07-31T03:33:22;3.00;;;1.90;;
80854;SDS011;70272;49.222;-122.892;2023-07-31T03:35:48;3.42;;;1.88;;
80854;SDS011;70272;49.222;-122.892;2023-07-31T03:38:14;2.90;;;1.80;;
80854;SDS011;70272;49.222;-122.892;2023-07-31T03:40:40;3.67;;;2.05;;
80854;SDS011;70272;49.222;-122.892;2023-07-31T03:43:06;3.60;;;2.00;;
80854;SDS011;70272;49.222;-122.892;2023-07-31T03:45:33;3.35;;;2.05;;
80854;SDS011;70272;49.222;-122.892;2023-07-31T03:47:59;3.95;;;1.90;;
80854;SDS011;70272;49.222;-122.892;2023-07-31T03:50:25;2.80;;;1.83;;
80854;SDS011;70272;49.222;-122.892;2023-07-31T03:52:52;2.83;;;1.85;;
80854;SDS011;70272;49.222;-122.892;2023-07-31T03:55:18;3.10;;;2.10;;
80854;SDS011;70272;49.222;-122.892;2023-07-31T03:57:44;3.15;;;2.00;;
80854;SDS011;70272;49.222;-122.892;2023-07-31T04:00:11;2.90;;;2.00;;
80854;SDS011;70272;49.222;-122.892;2023-07-31T04:02:37;3.88;;;1.90;;
80854;SDS011;70272;49.222;-122.892;2023-07-31T04:05:03;3.35;;;1.80;;
80854;SDS011;70272;49.222;-122.892;2023-07-31T04:07:30;2.72;;;2.00;;
80854;SDS011;70272;49.222;-122.892;2023-07-31T04:09:56;3.72;;;2.00;;
80854;SDS011;70272;49.222;-122.892;2023-07-31T04:12:23;2.90;;;1.90;;
80854;SDS011;70272;49.222;-122.892;2023-07-31T04:14:49;2.80;;;2.20;;
80854;SDS011;70272;49.222;-122.892;2023-07-31T04:17:17;3.08;;;1.92;;
80854;SDS011;70272;49.222;-122.892;2023-07-31T04:19:43;3.25;;;2.03;;
80854;SDS011;70272;49.222;-122.892;2023-07-31T04:22:10;3.63;;;2.00;;
80854;SDS011;70272;49.222;-122.892;2023-07-31T04:24:36;3.42;;;2.00;;
80854;SDS011;70272;49.222;-122.892;2023-07-31T04:27:02;2.92;;;1.90;;
80854;SDS011;70272;49.222;-122.892;2023-07-31T04:29:28;3.63;;;2.25;;
80854;SDS011;70272;49.222;-122.892;2023-07-31T04:31:55;3.70;;;2.25;;
80854;SDS011;70272;49.222;-122.892;2023-07-31T04:34:21;3.80;;;2.38;;
80854;SDS011;70272;49.222;-122.892;2023-07-31T04:36:47;3.20;;;1.98;;
80854;SDS011;70272;49.222;-122.892;2023-07-31T04:39:13;3.60;;;2.10;;
80854;SDS011;70272;49.222;-122.892;2023-07-31T04:41:40;2.90;;;1.90;;
80854;SDS011;70272;49.222;-122.892;2023-07-31T04:44:06;3.58;;;2.10;;
80854;SDS011;70272;49.222;-122.892;2023-07-31T04:46:32;3.63;;;2.08;;
80854;SDS011;70272;49.222;-122.892;2023-07-31T04:48:58;2.80;;;1.80;;
80854;SDS011;70272;49.222;-122.892;2023-07-31T04:51:24;2.95;;;1.90;;
80854;SDS011;70272;49.222;-122.892;2023-07-31T04:53:51;4.18;;;2.00;;
80854;SDS011;70272;49.222;-122.892;2023-07-31T04:56:17;5.07;;;2.35;;
80854;SDS011;70272;49.222;-122.892;2023-07-31T04:58:43;3.90;;;2.15;;
80854;SDS011;70272;49.222;-122.892;2023-07-31T05:01:10;3.65;;;2.03;;
80854;SDS011;70272;49.222;-122.892;2023-07-31T05:03:36;3.83;;;2.30;;
80854;SDS011;70272;49.222;-122.892;2023-07-31T05:06:02;3.60;;;2.08;;
80854;SDS011;70272;49.222;-122.892;2023-07-31T05:08:28;4.03;;;2.30;;
80854;SDS011;70272;49.222;-122.892;2023-07-31T05:10:55;3.72;;;2.38;;
80854;SDS011;70272;49.222;-122.892;2023-07-31T05:13:21;3.45;;;2.13;;
80854;SDS011;70272;49.222;-122.892;2023-07-31T05:15:47;2.95;;;2.00;;
80854;SDS011;70272;49.222;-122.892;2023-07-31T05:18:15;3.47;;;2.08;;
80854;SDS011;70272;49.222;-122.892;2023-07-31T05:20:41;4.00;;;2.22;;
80854;SDS011;70272;49.222;-122.892;2023-07-31T05:23:07;4.03;;;2.22;;
80854;SDS011;70272;49.222;-122.892;2023-07-31T05:25:33;2.90;;;2.00;;
80854;SDS011;70272;49.222;-122.892;2023-07-31T05:28:00;3.08;;;2.10;;
80854;SDS011;70272;49.222;-122.892;2023-07-31T05:30:26;3.85;;;2.30;;
80854;SDS011;70272;49.222;-122.892;2023-07-31T05:32:53;4.05;;;2.20;;
80854;SDS011;70272;49.222;-122.892;2023-07-31T05:35:19;2.65;;;1.80;;
80854;SDS011;70272;49.222;-122.892;2023-07-31T05:37:45;3.45;;;2.42;;
80854;SDS011;70272;49.222;-122.892;2023-07-31T05:40:11;2.70;;;2.20;;
80854;SDS011;70272;49.222;-122.892;2023-07-31T05:42:37;3.35;;;2.10;;
80854;SDS011;70272;49.222;-122.892;2023-07-31T05:45:05;3.13;;;2.05;;
80854;SDS011;70272;49.222;-122.892;2023-07-31T05:47:34;4.18;;;2.15;;
80854;SDS011;70272;49.222;-122.892;2023-07-31T05:50:00;3.53;;;1.92;;
80854;SDS011;70272;49.222;-122.892;2023-07-31T05:52:27;2.70;;;2.00;;
80854;SDS011;70272;49.222;-122.892;2023-07-31T05:54:54;3.70;;;2.10;;
80854;SDS011;70272;49.222;-122.892;2023-07-31T05:57:20;3.92;;;2.58;;
80854;SDS011;70272;49.222;-122.892;2023-07-31T05:59:47;3.22;;;2.10;;
80854;SDS011;70272;49.222;-122.892;2023-07-31T06:02:13;3.65;;;2.40;;
80854;SDS011;70272;49.222;-122.892;2023-07-31T06:04:39;4.85;;;2.40;;
80854;SDS011;70272;49.222;-122.892;2023-07-31T06:07:05;3.78;;;2.08;;
80854;SDS011;70272;49.222;-122.892;2023-07-31T06:09:32;3.83;;;2.10;;
80854;SDS011;70272;49.222;-122.892;2023-07-31T06:11:58;3.78;;;2.10;;
80854;SDS011;70272;49.222;-122.892;2023-07-31T06:14:24;3.33;;;2.10;;
80854;SDS011;70272;49.222;-122.892;2023-07-31T06:16:50;3.65;;;2.30;;
80854;SDS011;70272;49.222;-122.892;2023-07-31T06:19:17;3.55;;;2.20;;
80854;SDS011;70272;49.222;-122.892;2023-07-31T06:21:43;4.35;;;2.38;;
80854;SDS011;70272;49.222;-122.892;2023-07-31T06:24:09;3.33;;;2.03;;
80854;SDS011;70272;49.222;-122.892;2023-07-31T06:26:37;4.38;;;2.28;;
80854;SDS011;70272;49.222;-122.892;2023-07-31T06:29:03;3.78;;;2.55;;
80854;SDS011;70272;49.222;-122.892;2023-07-31T06:31:29;3.38;;;2.10;;
80854;SDS011;70272;49.222;-122.892;2023-07-31T06:33:56;4.32;;;2.28;;
80854;SDS011;70272;49.222;-122.892;2023-07-31T06:36:22;3.42;;;2.20;;
80854;SDS011;70272;49.222;-122.892;2023-07-31T06:38:48;4.57;;;2.25;;
80854;SDS011;70272;49.222;-122.892;2023-07-31T06:41:15;3.45;;;2.10;;
80854;SDS011;70272;49.222;-122.892;2023-07-31T06:43:41;4.55;;;2.33;;
80854;SDS011;70272;49.222;-122.892;2023-07-31T06:46:07;3.40;;;2.20;;
80854;SDS011;70272;49.222;-122.892;2023-07-31T06:48:34;4.30;;;2.50;;
80854;SDS011;70272;49.222;-122.892;2023-07-31T06:51:02;3.25;;;2.10;;
80854;SDS011;70272;49.222;-122.892;2023-07-31T06:53:28;5.10;;;2.22;;
80854;SDS011;70272;49.222;-122.892;2023-07-31T06:55:54;3.08;;;2.20;;
80854;SDS011;70272;49.222;-122.892;2023-07-31T06:58:21;3.17;;;2.17;;
80854;SDS011;70272;49.222;-122.892;2023-07-31T07:00:47;3.97;;;2.65;;
80854;SDS011;70272;49.222;-122.892;2023-07-31T07:03:16;3.70;;;2.38;;
80854;SDS011;70272;49.222;-122.892;2023-07-31T07:05:45;3.60;;;2.30;;
80854;SDS011;70272;49.222;-122.892;2023-07-31T07:08:12;3.60;;;2.25;;
80854;SDS011;70272;49.222;-122.892;2023-07-31T07:10:38;5.00;;;2.47;;
80854;SDS011;70272;49.222;-122.892;2023-07-31T07:13:05;4.15;;;2.25;;
80854;SDS011;70272;49.222;-122.892;2023-07-31T07:15:31;3.92;;;2.58;;
80854;SDS011;70272;49.222;-122.892;2023-07-31T07:17:57;5.00;;;2.60;;
80854;SDS011;70272;49.222;-122.892;2023-07-31T07:20:23;3.50;;;2.45;;
80854;SDS011;70272;49.222;-122.892;2023-07-31T07:22:50;5.25;;;2.33;;
80854;SDS011;70272;49.222;-122.892;2023-07-31T07:25:16;4.50;;;2.80;;
80854;SDS011;70272;49.222;-122.892;2023-07-31T07:27:42;4.13;;;2.80;;
80854;SDS011;70272;49.222;-122.892;2023-07-31T07:30:08;4.35;;;2.45;;
80854;SDS011;70272;49.222;-122.892;2023-07-31T07:32:35;4.35;;;2.65;;
80854;SDS011;70272;49.222;-122.892;2023-07-31T07:35:01;4.13;;;2.58;;
80854;SDS011;70272;49.222;-122.892;2023-07-31T07:37:27;4.82;;;2.42;;
80854;SDS011;70272;49.222;-122.892;2023-07-31T07:39:53;3.92;;;2.53;;
80854;SDS011;70272;49.222;-122.892;2023-07-31T07:42:20;3.38;;;2.20;;
80854;SDS011;70272;49.222;-122.892;2023-07-31T07:44:46;3.30;;;2.25;;
80854;SDS011;70272;49.222;-122.892;2023-07-31T07:47:12;4.35;;;2.42;;
80854;SDS011;70272;49.222;-122.892;2023-07-31T07:49:39;3.22;;;2.08;;
80854;SDS011;70272;49.222;-122.892;2023-07-31T07:52:05;5.32;;;2.13;;
80854;SDS011;70272;49.222;-122.892;2023-07-31T07:54:31;4.15;;;2.22;;
80854;SDS011;70272;49.222;-122.892;2023-07-31T07:56:58;3.75;;;2.53;;
80854;SDS011;70272;49.222;-122.892;2023-07-31T07:59:24;3.92;;;2.25;;
80854;SDS011;70272;49.222;-122.892;2023-07-31T08:01:50;2.97;;;1.85;;
80854;SDS011;70272;49.222;-122.892;2023-07-31T08:04:17;4.18;;;2.50;;
80854;SDS011;70272;49.222;-122.892;2023-07-31T08:06:43;5.40;;;2.42;;
80854;SDS011;70272;49.222;-122.892;2023-07-31T08:09:09;3.55;;;2.50;;
80854;SDS011;70272;49.222;-122.892;2023-07-31T08:11:35;3.25;;;2.28;;
80854;SDS011;70272;49.222;-122.892;2023-07-31T08:14:02;3.75;;;1.92;;
80854;SDS011;70272;49.222;-122.892;2023-07-31T08:16:28;3.50;;;2.05;;
80854;SDS011;70272;49.222;-122.892;2023-07-31T08:18:54;3.92;;;2.20;;
80854;SDS011;70272;49.222;-122.892;2023-07-31T08:21:21;3.83;;;2.22;;
80854;SDS011;70272;49.222;-122.892;2023-07-31T08:23:47;3.15;;;2.00;;
80854;SDS011;70272;49.222;-122.892;2023-07-31T08:26:17;3.28;;;2.22;;
80854;SDS011;70272;49.222;-122.892;2023-07-31T08:28:44;3.17;;;2.35;;
80854;SDS011;70272;49.222;-122.892;2023-07-31T08:31:11;4.90;;;2.60;;
80854;SDS011;70272;49.222;-122.892;2023-07-31T08:33:37;4.80;;;2.47;;
80854;SDS011;70272;49.222;-122.892;2023-07-31T08:36:05;4.88;;;2.83;;
80854;SDS011;70272;49.222;-122.892;2023-07-31T08:38:31;4.80;;;2.30;;
80854;SDS011;70272;49.222;-122.892;2023-07-31T08:40:58;3.72;;;2.20;;
80854;SDS011;70272;49.222;-122.892;2023-07-31T08:43:25;4.30;;;2.35;;
80854;SDS011;70272;49.222;-122.892;2023-07-31T08:45:52;4.18;;;2.00;;
80854;SDS011;70272;49.222;-122.892;2023-07-31T08:48:19;5.05;;;2.50;;
80854;SDS011;70272;49.222;-122.892;2023-07-31T08:50:46;3.50;;;2.10;;
80854;SDS011;70272;49.222;-122.892;2023-07-31T08:53:12;5.13;;;2.30;;
80854;SDS011;70272;49.222;-122.892;2023-07-31T08:55:39;3.83;;;2.30;;
80854;SDS011;70272;49.222;-122.892;2023-07-31T08:58:06;3.78;;;2.30;;
80854;SDS011;70272;49.222;-122.892;2023-07-31T09:00:32;4.05;;;2.50;;
80854;SDS011;70272;49.222;-122.892;2023-07-31T09:03:02;3.28;;;2.17;;
80854;SDS011;70272;49.222;-122.892;2023-07-31T09:05:30;3.88;;;2.40;;
80854;SDS011;70272;49.222;-122.892;2023-07-31T09:07:57;3.13;;;2.20;;
80854;SDS011;70272;49.222;-122.892;2023-07-31T09:10:23;3.80;;;2.28;;
80854;SDS011;70272;49.222;-122.892;2023-07-31T09:12:53;4.13;;;2.50;;
80854;SDS011;70272;49.222;-122.892;2023-07-31T09:15:20;4.30;;;2.22;;
80854;SDS011;70272;49.222;-122.892;2023-07-31T09:17:47;3.42;;;2.20;;
80854;SDS011;70272;49.222;-122.892;2023-07-31T09:20:14;5.35;;;2.10;;
80854;SDS011;70272;49.222;-122.892;2023-07-31T09:22:42;3.83;;;2.28;;
80854;SDS011;70272;49.222;-122.892;2023-07-31T09:25:16;3.85;;;2.33;;
80854;SDS011;70272;49.222;-122.892;2023-07-31T09:30:21;4.35;;;2.30;;
80854;SDS011;70272;49.222;-122.892;2023-07-31T09:32:49;6.22;;;4.03;;
80854;SDS011;70272;49.222;-122.892;2023-07-31T09:35:49;10.18;;;4.97;;
80854;SDS011;70272;49.222;-122.892;2023-07-31T09:38:09;3.95;;;2.55;;
80854;SDS011;70272;49.222;-122.892;2023-07-31T09:40:38;4.72;;;2.35;;
80854;SDS011;70272;49.222;-122.892;2023-07-31T09:43:09;3.97;;;2.25;;
80854;SDS011;70272;49.222;-122.892;2023-07-31T09:45:40;3.35;;;2.08;;
80854;SDS011;70272;49.222;-122.892;2023-07-31T09:48:14;4.20;;;2.35;;
80854;SDS011;70272;49.222;-122.892;2023-07-31T09:50:42;4.35;;;2.17;;
80854;SDS011;70272;49.222;-122.892;2023-07-31T09:53:12;2.85;;;2.00;;
80854;SDS011;70272;49.222;-122.892;2023-07-31T09:55:39;2.90;;;2.13;;
80854;SDS011;70272;49.222;-122.892;2023-07-31T09:58:06;4.03;;;1.92;;
80854;SDS011;70272;49.222;-122.892;2023-07-31T10:00:34;4.20;;;2.30;;
80854;SDS011;70272;49.222;-122.892;2023-07-31T10:03:04;3.88;;;2.20;;
80854;SDS011;70272;49.222;-122.892;2023-07-31T10:05:37;4.38;;;2.30;;
80854;SDS011;70272;49.222;-122.892;2023-07-31T10:08:10;2.97;;;2.20;;
80854;SDS011;70272;49.222;-122.892;2023-07-31T10:10:36;3.75;;;2.30;;
80854;SDS011;70272;49.222;-122.892;2023-07-31T10:13:03;3.10;;;2.20;;
80854;SDS011;70272;49.222;-122.892;2023-07-31T10:15:30;3.42;;;2.15;;
80854;SDS011;70272;49.222;-122.892;2023-07-31T10:17:58;4.40;;;2.25;;
80854;SDS011;70272;49.222;-122.892;2023-07-31T10:20:24;5.60;;;2.58;;
80854;SDS011;70272;49.222;-122.892;2023-07-31T10:22:50;3.20;;;2.40;;
80854;SDS011;70272;49.222;-122.892;2023-07-31T10:25:17;5.93;;;2.65;;
80854;SDS011;70272;49.222;-122.892;2023-07-31T10:27:44;3.40;;;2.33;;
80854;SDS011;70272;49.222;-122.892;2023-07-31T10:30:15;4.13;;;2.25;;
80854;SDS011;70272;49.222;-122.892;2023-07-31T10:32:43;3.63;;;2.33;;
80854;SDS011;70272;49.222;-122.892;2023-07-31T10:35:10;3.95;;;2.22;;
80854;SDS011;70272;49.222;-122.892;2023-07-31T10:37:38;4.32;;;2.25;;
80854;SDS011;70272;49.222;-122.892;2023-07-31T10:40:12;4.95;;;2.22;;
80854;SDS011;70272;49.222;-122.892;2023-07-31T10:42:47;3.80;;;2.38;;
80854;SDS011;70272;49.222;-122.892;2023-07-31T10:45:13;6.82;;;2.50;;
80854;SDS011;70272;49.222;-122.892;2023-07-31T10:47:49;3.78;;;2.30;;
80854;SDS011;70272;49.222;-122.892;2023-07-31T10:50:19;3.95;;;2.22;;
80854;SDS011;70272;49.222;-122.892;2023-07-31T10:52:50;3.65;;;2.30;;
80854;SDS011;70272;49.222;-122.892;2023-07-31T10:55:27;4.13;;;2.28;;
80854;SDS011;70272;49.222;-122.892;2023-07-31T10:57:56;3.00;;;2.15;;
80854;SDS011;70272;49.222;-122.892;2023-07-31T11:06:01;3.22;;;1.90;;
80854;SDS011;70272;49.222;-122.892;2023-07-31T11:08:31;3.28;;;2.28;;
80854;SDS011;70272;49.222;-122.892;2023-07-31T11:13:33;3.22;;;2.10;;
80854;SDS011;70272;49.222;-122.892;2023-07-31T11:16:00;3.60;;;2.30;;
80854;SDS011;70272;49.222;-122.892;2023-07-31T11:18:26;4.10;;;2.15;;
80854;SDS011;70272;49.222;-122.892;2023-07-31T11:20:53;4.80;;;2.40;;
80854;SDS011;70272;49.222;-122.892;2023-07-31T11:23:22;4.18;;;2.25;;
80854;SDS011;70272;49.222;-122.892;2023-07-31T11:25:49;5.53;;;2.60;;
80854;SDS011;70272;49.222;-122.892;2023-07-31T11:28:16;4.57;;;2.42;;
80854;SDS011;70272;49.222;-122.892;2023-07-31T11:30:44;3.92;;;2.45;;
80854;SDS011;70272;49.222;-122.892;2023-07-31T11:33:11;3.30;;;2.15;;
80854;SDS011;70272;49.222;-122.892;2023-07-31T11:35:43;3.22;;;2.00;;
80854;SDS011;70272;49.222;-122.892;2023-07-31T11:40:54;4.90;;;2.50;;
80854;SDS011;70272;49.222;-122.892;2023-07-31T11:43:22;4.25;;;2.50;;
80854;SDS011;70272;49.222;-122.892;2023-07-31T11:45:49;4.30;;;2.30;;
80854;SDS011;70272;49.222;-122.892;2023-07-31T11:48:24;5.53;;;3.20;;
80854;SDS011;70272;49.222;-122.892;2023-07-31T11:50:53;3.50;;;2.28;;
80854;SDS011;70272;49.222;-122.892;2023-07-31T11:53:30;7.57;;;2.70;;
80854;SDS011;70272;49.222;-122.892;2023-07-31T11:56:07;6.50;;;2.63;;
80854;SDS011;70272;49.222;-122.892;2023-07-31T11:58:36;3.55;;;2.72;;
80854;SDS011;70272;49.222;-122.892;2023-07-31T12:01:04;3.47;;;2.22;;
80854;SDS011;70272;49.222;-122.892;2023-07-31T12:03:31;5.63;;;2.42;;
80854;SDS011;70272;49.222;-122.892;2023-07-31T12:05:58;4.63;;;2.50;;
80854;SDS011;70272;49.222;-122.892;2023-07-31T12:08:24;3.53;;;2.30;;
80854;SDS011;70272;49.222;-122.892;2023-07-31T12:10:52;4.75;;;2.72;;
80854;SDS011;70272;49.222;-122.892;2023-07-31T12:13:22;4.32;;;2.75;;
80854;SDS011;70272;49.222;-122.892;2023-07-31T12:15:53;3.92;;;2.33;;
80854;SDS011;70272;49.222;-122.892;2023-07-31T12:18:24;6.65;;;2.50;;
80854;SDS011;70272;49.222;-122.892;2023-07-31T12:20:55;5.35;;;2.90;;
80854;SDS011;70272;49.222;-122.892;2023-07-31T12:23:27;5.40;;;2.85;;
80854;SDS011;70272;49.222;-122.892;2023-07-31T12:31:07;4.60;;;2.90;;
80854;SDS011;70272;49.222;-122.892;2023-07-31T12:33:37;4.95;;;2.47;;
80854;SDS011;70272;49.222;-122.892;2023-07-31T12:36:06;3.30;;;2.42;;
80854;SDS011;70272;49.222;-122.892;2023-07-31T12:38:34;4.40;;;2.40;;
80854;SDS011;70272;49.222;-122.892;2023-07-31T12:41:00;4.35;;;2.45;;
80854;SDS011;70272;49.222;-122.892;2023-07-31T12:43:27;3.63;;;2.50;;
80854;SDS011;70272;49.222;-122.892;2023-07-31T12:45:56;3.63;;;2.15;;
80854;SDS011;70272;49.222;-122.892;2023-07-31T12:48:25;4.72;;;2.67;;
80854;SDS011;70272;49.222;-122.892;2023-07-31T12:50:51;3.80;;;2.30;;
80854;SDS011;70272;49.222;-122.892;2023-07-31T12:53:17;4.75;;;2.58;;
80854;SDS011;70272;49.222;-122.892;2023-07-31T12:55:43;5.10;;;2.92;;
80854;SDS011;70272;49.222;-122.892;2023-07-31T12:58:10;4.07;;;2.70;;
80854;SDS011;70272;49.222;-122.892;2023-07-31T13:00:36;4.15;;;2.33;;
80854;SDS011;70272;49.222;-122.892;2023-07-31T13:03:03;3.95;;;2.47;;
80854;SDS011;70272;49.222;-122.892;2023-07-31T13:05:29;4.55;;;2.13;;
80854;SDS011;70272;49.222;-122.892;2023-07-31T13:07:55;3.60;;;2.42;;
80854;SDS011;70272;49.222;-122.892;2023-07-31T13:10:22;4.90;;;2.38;;
80854;SDS011;70272;49.222;-122.892;2023-07-31T13:12:49;4.43;;;2.20;;
80854;SDS011;70272;49.222;-122.892;2023-07-31T13:15:16;3.35;;;2.30;;
80854;SDS011;70272;49.222;-122.892;2023-07-31T13:17:42;5.70;;;2.47;;
80854;SDS011;70272;49.222;-122.892;2023-07-31T13:20:08;3.88;;;2.50;;
80854;SDS011;70272;49.222;-122.892;2023-07-31T13:22:35;6.10;;;3.38;;
80854;SDS011;70272;49.222;-122.892;2023-07-31T13:25:01;4.82;;;2.55;;
80854;SDS011;70272;49.222;-122.892;2023-07-31T13:27:28;3.85;;;2.47;;
80854;SDS011;70272;49.222;-122.892;2023-07-31T13:29:54;4.68;;;2.72;;
80854;SDS011;70272;49.222;-122.892;2023-07-31T13:32:21;3.83;;;2.22;;
80854;SDS011;70272;49.222;-122.892;2023-07-31T13:34:47;3.70;;;2.40;;
80854;SDS011;70272;49.222;-122.892;2023-07-31T13:37:14;3.95;;;2.35;;
80854;SDS011;70272;49.222;-122.892;2023-07-31T13:39:40;4.15;;;2.67;;
80854;SDS011;70272;49.222;-122.892;2023-07-31T13:42:07;5.82;;;2.72;;
80854;SDS011;70272;49.222;-122.892;2023-07-31T13:44:34;4.10;;;2.85;;
80854;SDS011;70272;49.222;-122.892;2023-07-31T13:47:01;6.15;;;3.58;;
80854;SDS011;70272;49.222;-122.892;2023-07-31T13:49:27;6.22;;;3.50;;
80854;SDS011;70272;49.222;-122.892;2023-07-31T13:51:54;5.47;;;3.22;;
80854;SDS011;70272;49.222;-122.892;2023-07-31T13:54:20;3.90;;;2.60;;
80854;SDS011;70272;49.222;-122.892;2023-07-31T13:56:47;5.03;;;3.15;;
80854;SDS011;70272;49.222;-122.892;2023-07-31T13:59:14;6.13;;;3.25;;
80854;SDS011;70272;49.222;-122.892;2023-07-31T14:01:43;4.05;;;2.80;;
80854;SDS011;70272;49.222;-122.892;2023-07-31T14:04:10;7.22;;;4.45;;
80854;SDS011;70272;49.222;-122.892;2023-07-31T14:06:37;9.90;;;7.05;;
80854;SDS011;70272;49.222;-122.892;2023-07-31T14:09:03;9.77;;;5.50;;
80854;SDS011;70272;49.222;-122.892;2023-07-31T14:11:33;11.60;;;4.22;;
80854;SDS011;70272;49.222;-122.892;2023-07-31T14:13:59;15.70;;;14.35;;
80854;SDS011;70272;49.222;-122.892;2023-07-31T14:16:27;16.95;;;8.93;;
80854;SDS011;70272;49.222;-122.892;2023-07-31T14:18:54;8.35;;;4.22;;
80854;SDS011;70272;49.222;-122.892;2023-07-31T14:21:20;21.10;;;19.40;;
80854;SDS011;70272;49.222;-122.892;2023-07-31T14:23:46;13.80;;;12.65;;
80854;SDS011;70272;49.222;-122.892;2023-07-31T14:26:12;10.20;;;8.93;;
80854;SDS011;70272;49.222;-122.892;2023-07-31T14:28:39;9.02;;;7.85;;
80854;SDS011;70272;49.222;-122.892;2023-07-31T14:31:05;9.13;;;8.23;;
80854;SDS011;70272;49.222;-122.892;2023-07-31T14:33:31;7.00;;;5.82;;